Flight Track Log - Related Links

Times and Time Zones

All times are in EDT time to prevent confusion due to time zone crossing. See the N960DL flight status page for this flight to view local times or setup timezone preferences in your user account.

Time Position Orientation Groundspeed Altitude Reporting Facility
EDT Latitude Longitude Course Direction KTS MPH feet Rate Location/Type
Sun 02:06:39 PM 33.6500 -84.3500 48° Northeast 211 243 3,100  Level Atlanta TRACON
Sun 02:07:38 PM 33.7000 -84.2833 48° Northeast 262 302 5,900 2,773 Climbing Atlanta TRACON
Sun 02:08:38 PM 33.7833 -84.2833 360° North 296 341 8,600 2,487 Climbing Atlanta TRACON
Sun 02:10:51 PM 33.8122 -84.4814 280° West 283 326 13,900 2,021 Climbing Atlanta Center
Sun 02:11:51 PM 33.8119 -84.5714 270° West 283 326 15,100 1,300 Climbing Atlanta Center
Sun 02:12:51 PM 33.7947 -84.6761 259° West 303 349 16,500 1,550 Climbing Atlanta Center
Sun 02:13:51 PM 33.7961 -84.7936 271° West 332 382 18,200 1,650 Climbing Atlanta Center
Sun 02:14:51 PM 33.8017 -84.9139 273° West 356 410 19,800 1,500 Climbing Atlanta Center
Sun 02:15:51 PM 33.8092 -85.0339 274° West 367 422 21,200 1,400 Climbing Atlanta Center
Sun 02:16:51 PM 33.8164 -85.1639 274° West 373 429 22,600 1,300 Climbing Atlanta Center
Sun 02:17:51 PM 33.8233 -85.2917 274° West 378 435 23,800 1,300 Climbing Atlanta Center
Sun 02:18:51 PM 33.8281 -85.4317 272° West 392 451 25,200 1,100 Climbing Atlanta Center
Sun 02:19:51 PM 33.8369 -85.5669 275° West 392 451 26,000 400 Climbing Atlanta Center
Sun 02:20:51 PM 33.8497 -85.7047 276° West 406 467 26,000  Level Atlanta Center
Sun 02:21:51 PM 33.8708 -85.8328 281° West 407 468 26,000  Level Atlanta Center
Sun 02:22:51 PM 33.8897 -85.9656 280° West 407 468 26,000  Level Atlanta Center
Sun 02:23:51 PM 33.9106 -86.0989 281° West 407 468 26,000  Level Atlanta Center
Sun 02:24:51 PM 33.9292 -86.2344 279° West 407 468 26,000  Level Atlanta Center
Sun 02:25:51 PM 33.9497 -86.3678 281° West 412 474 26,000  Level Atlanta Center
Sun 02:26:51 PM 33.9678 -86.5036 279° West 412 474 26,000  Level Atlanta Center
Sun 02:27:52 PM 33.9861 -86.6367 279° West 412 474 26,000  Level Atlanta Center
Sun 02:28:51 PM 34.0058 -86.7778 280° West 412 474 26,000  Level Atlanta Center
Sun 02:29:51 PM 34.0256 -86.9186 280° West 418 481 26,000  Level Atlanta Center
Sun 02:32:08 PM 34.0792 -87.2425 281° West 438 504 26,000  Level Memphis Center
Sun 02:33:08 PM 34.0950 -87.3722 278° West 423 487 26,000  Level Memphis Center
Sun 02:34:08 PM 34.1150 -87.5122 280° West 435 501 26,000  Level Memphis Center
Sun 02:35:08 PM 34.1347 -87.6519 280° West 435 501 26,000  Level Memphis Center
Sun 02:36:08 PM 34.1544 -87.7919 280° West 430 495 26,000  Level Memphis Center
Sun 02:37:08 PM 34.1761 -87.9319 281° West 430 495 26,000  Level Memphis Center
Sun 02:38:08 PM 34.1933 -88.0694 279° West 430 495 26,000  Level Memphis Center
Sun 02:39:08 PM 34.2128 -88.2272 279° West 430 495 26,000  Level Memphis Center
Sun 02:40:08 PM 34.2319 -88.3675 279° West 430 495 26,000  Level Memphis Center
Sun 02:41:09 PM 34.2528 -88.5128 280° West 430 495 26,000  Level Memphis Center
Sun 02:42:08 PM 34.2694 -88.6556 278° West 435 501 26,000  Level Memphis Center
Sun 02:43:08 PM 34.2858 -88.7961 278° West 429 494 26,000  Level Memphis Center
Sun 02:44:08 PM 34.3042 -88.9314 279° West 421 484 26,000  Level Memphis Center
Sun 02:45:08 PM 34.3203 -89.0669 278° West 415 478 26,000 -100 Level Memphis Center
Sun 02:46:08 PM 34.3364 -89.2025 278° West 415 478 25,800 -650 Descending Memphis Center
Sun 02:47:08 PM 34.3500 -89.3206 278° West 408 470 24,700 -900 Descending Memphis Center
Sun 02:48:08 PM 34.3678 -89.4589 279° West 408 470 24,000 -350 Descending Memphis Center
Sun 02:49:08 PM 34.3853 -89.5969 279° West 408 470 24,000  Level Memphis Center
Sun 02:50:08 PM 34.4028 -89.7328 279° West 408 470 24,000  Level Memphis Center
Sun 02:51:08 PM 34.4200 -89.8736 278° West 413 475 24,000  Level Memphis Center
Sun 02:52:08 PM 34.4394 -90.0247 279° West 413 475 24,000  Level Memphis Center
Sun 02:53:08 PM 34.4564 -90.1633 278° West 418 481 24,000  Level Memphis Center
Sun 02:54:08 PM 34.4731 -90.3067 278° West 428 493 24,000  Level Memphis Center
Sun 02:55:09 PM 34.4900 -90.4478 278° West 428 493 24,000  Level Memphis Center
Sun 02:56:08 PM 34.5086 -90.5889 279° West 428 493 24,000  Level Memphis Center
Sun 02:57:08 PM 34.5228 -90.7303 277° West 428 493 24,000  Level Memphis Center
Sun 02:58:09 PM 34.5389 -90.8589 279° West 428 493 24,000  Level Memphis Center
Sun 02:59:08 PM 34.5550 -90.9950 278° West 423 487 24,000  Level Memphis Center
Sun 03:00:08 PM 34.5564 -91.1339 271° West 423 487 24,000  Level Memphis Center
Sun 03:01:08 PM 34.5450 -91.2725 264° West 423 487 24,000  Level Memphis Center
Sun 03:02:08 PM 34.5314 -91.4133 263° West 423 487 24,000  Level Memphis Center
Sun 03:03:08 PM 34.5217 -91.5544 265° West 428 493 24,000  Level Memphis Center
Sun 03:04:08 PM 34.5036 -91.6903 261° West 422 486 24,000  Level Memphis Center
Sun 03:05:09 PM 34.4917 -91.8414 265° West 416 479 24,000  Level Memphis Center
Sun 03:06:08 PM 34.4772 -91.9797 263° West 416 479 24,000  Level Memphis Center
Sun 03:07:08 PM 34.4672 -92.1181 265° West 416 479 24,000  Level Memphis Center
Sun 03:08:08 PM 34.4525 -92.2564 263° West 421 484 24,000  Level Memphis Center
Sun 03:09:08 PM 34.4400 -92.3944 264° West 421 484 24,000  Level Memphis Center
Sun 03:10:08 PM 34.4253 -92.5275 262° West 416 479 24,000  Level Memphis Center
Sun 03:11:08 PM 34.4103 -92.6681 263° West 416 479 24,000  Level Memphis Center
Sun 03:12:08 PM 34.3931 -92.8036 261° West 416 479 24,000  Level Memphis Center
Sun 03:13:08 PM 34.3800 -92.9367 263° West 416 479 24,000  Level Memphis Center
Sun 03:14:08 PM 34.3667 -93.0722 263° West 410 472 24,000  Level Memphis Center
Sun 03:16:27 PM 34.3339 -93.3772 263° West 411 473 24,000  Level Fort Worth Center
Sun 03:17:27 PM 34.3192 -93.5111 262° West 411 473 24,000  Level Fort Worth Center
Sun 03:18:27 PM 34.2878 -93.6406 254° West 411 473 24,000  Level Fort Worth Center
Sun 03:19:27 PM 34.2519 -93.7703 252° West 411 473 24,000  Level Fort Worth Center
Sun 03:20:27 PM 34.2161 -93.9000 252° West 411 473 24,000  Level Fort Worth Center
Sun 03:21:27 PM 34.1797 -94.0244 251° West 406 467 24,000  Level Fort Worth Center
Sun 03:22:27 PM 34.1456 -94.1536 252° West 406 467 24,000  Level Fort Worth Center
Sun 03:23:27 PM 34.1114 -94.2781 252° West 406 467 24,000  Level Fort Worth Center
Sun 03:24:27 PM 34.0725 -94.4022 249° West 406 467 24,000  Level Fort Worth Center
Sun 03:25:27 PM 34.0381 -94.5286 252° West 406 467 24,000  Level Fort Worth Center
Sun 03:26:27 PM 34.0011 -94.6553 251° West 406 467 24,000  Level Fort Worth Center
Sun 03:27:27 PM 33.9664 -94.7814 252° West 406 467 24,000  Level Fort Worth Center
Sun 03:28:27 PM 33.9269 -94.9028 249° West 406 467 24,000  Level Fort Worth Center
Sun 03:29:27 PM 33.8836 -95.0267 247° West 406 467 24,000  Level Fort Worth Center
Sun 03:30:27 PM 33.8419 -95.1478 248° West 401 461 24,000  Level Fort Worth Center
Sun 03:31:27 PM 33.7981 -95.2664 246° West 396 456 24,000  Level Fort Worth Center
Sun 03:32:27 PM 33.7564 -95.3875 248° West 396 456 24,000  Level Fort Worth Center
Sun 03:33:27 PM 33.7164 -95.5081 248° West 396 456 24,000 -150 Level Fort Worth Center
Sun 03:34:27 PM 33.6706 -95.6389 247° West 391 450 23,700 -1,400 Descending Fort Worth Center
Sun 03:35:27 PM 33.6283 -95.7569 247° West 391 450 21,200 -2,100 Descending Fort Worth Center
Sun 03:36:27 PM 33.5881 -95.8750 248° West 391 450 19,500 -1,850 Descending Fort Worth Center
Sun 03:37:27 PM 33.5456 -95.9878 246° West 378 435 17,500 -2,150 Descending Fort Worth Center
Sun 03:38:27 PM 33.5111 -96.0881 248° West 378 435 15,200 -2,300 Descending Fort Worth Center
Sun 03:39:27 PM 33.4683 -96.2083 247° West 370 426 12,900 -2,000 Descending Fort Worth Center
Sun 03:40:27 PM 33.4319 -96.3108 247° West 351 404 11,200 -950 Descending Fort Worth Center
Sun 03:41:27 PM 33.3972 -96.4033 246° West 319 367 11,000 -700 Descending Fort Worth Center
Sun 03:42:27 PM 33.3497 -96.4683 229° Southwest 286 329 9,800 -1,450 Descending Fort Worth Center
Sun 03:43:27 PM 33.3042 -96.5386 232° Southwest 267 307 8,100 -1,550 Descending Fort Worth Center
Sun 03:44:27 PM 33.2900 -96.6206 258° West 254 292 6,700 -1,450 Descending Fort Worth Center
Sun 03:45:27 PM 33.2592 -96.6931 243° Southwest 254 292 5,200 -850 Descending Fort Worth Center
Sun 03:46:27 PM 33.2136 -96.7581 230° Southwest 253 291 5,000 -100 Descending Fort Worth Center
Sun 03:47:27 PM 33.1744 -96.8178 232° Southwest 247 284 5,000  Level Fort Worth Center
Sun 03:48:27 PM 33.1411 -96.8628 229° Southwest 225 259 5,000 -500 Level Fort Worth Center
Sun 03:49:27 PM 33.1017 -96.9250 233° Southwest 220 253 4,000 -1,000 Descending Fort Worth Center
Sun 03:50:27 PM 33.0686 -96.9722 230° Southwest 210 242 3,000 -500 Descending Fort Worth Center
Sun 03:51:27 PM 33.0289 -97.0269 229° Southwest 205 236 3,000 -500 Level Fort Worth Center
Sun 03:52:27 PM 32.9811 -97.0272 180° South 185 213 2,000 -1,000 Descending Fort Worth Center
Sun 03:53:27 PM 32.9392 -97.0272 180° South 165 190 1,000 -1,000 Descending Fort Worth Center
Sun 03:55:00 PM 32.8968 -97.0380 232° Southwest  Level Estimated

Login

Don't have an account? Register now (free) for customized features, flight alerts, and more!